GLD1620 TGPY-TNCM
Flight info
| Callsign | GLD1620 |
|---|---|
| Flight time | N/A |
| Altitude | 37000 |
| Route | EMKIS SORRL ZPATA |
| Aircraft | B738/M-SDE2E3FGHIRWXY/LB1 |
Departure
| Time | 2026-04-20 19:14 |
|---|---|
| Airport | Maurice Bishop International Airport (TGPY) |
Arrival
| Time | N/A |
|---|---|
| Airport | Princess Juliana International Airport (TNCM) |
| Time | Latitude | Longitude | Altitude | Speed | Heading |
|---|---|---|---|---|---|
| 2026-04-20 19:04 | 12.00658 | -61.78594 | 42 ft | 0 kts | 4° |
| 2026-04-20 19:05 | 12.00657 | -61.78595 | 42 ft | 2 kts | 4° |
| 2026-04-20 19:05 | 12.00642 | -61.78595 | 41 ft | 4 kts | 289° |
| 2026-04-20 19:05 | 12.00646 | -61.78584 | 38 ft | 4 kts | 254° |
| 2026-04-20 19:06 | 12.00648 | -61.78566 | 42 ft | 0 kts | 289° |
| 2026-04-20 19:09 | 12.00648 | -61.78567 | 41 ft | 1 kts | 284° |
| 2026-04-20 19:09 | 12.00633 | -61.78597 | 40 ft | 5 kts | 219° |
| 2026-04-20 19:09 | 12.00601 | -61.78600 | 41 ft | 5 kts | 174° |
| 2026-04-20 19:09 | 12.00553 | -61.78598 | 42 ft | 11 kts | 183° |
| 2026-04-20 19:10 | 12.00439 | -61.78596 | 44 ft | 18 kts | 161° |
| 2026-04-20 19:10 | 12.00416 | -61.78582 | 42 ft | 0 kts | 146° |
| 2026-04-20 19:10 | 12.00389 | -61.78586 | 44 ft | 7 kts | 207° |
| 2026-04-20 19:10 | 12.00367 | -61.78635 | 45 ft | 14 kts | 272° |
| 2026-04-20 19:11 | 12.00400 | -61.78813 | 43 ft | 30 kts | 280° |
| 2026-04-20 19:11 | 12.00405 | -61.79021 | 44 ft | 29 kts | 272° |
| 2026-04-20 19:11 | 12.00421 | -61.79216 | 41 ft | 27 kts | 270° |
| 2026-04-20 19:11 | 12.00410 | -61.79398 | 37 ft | 25 kts | 269° |
| 2026-04-20 19:12 | 12.00408 | -61.79569 | 35 ft | 23 kts | 274° |
| 2026-04-20 19:12 | 12.00409 | -61.79729 | 32 ft | 22 kts | 259° |
| 2026-04-20 19:12 | 12.00441 | -61.79836 | 30 ft | 9 kts | 285° |
| 2026-04-20 19:12 | 12.00439 | -61.79853 | 30 ft | 0 kts | 233° |
| 2026-04-20 19:13 | 12.00429 | -61.79852 | 30 ft | 2 kts | 164° |
| 2026-04-20 19:13 | 12.00425 | -61.79843 | 30 ft | 0 kts | 105° |
| 2026-04-20 19:13 | 12.00425 | -61.79841 | 30 ft | 3 kts | 107° |
| 2026-04-20 19:14 | 12.00415 | -61.79779 | 29 ft | 28 kts | 92° |
| 2026-04-20 19:14 | 12.00411 | -61.79234 | 41 ft | 122 kts | 89° |
| 2026-04-20 19:14 | 12.00630 | -61.78141 | 212 ft | 187 kts | 63° |
| 2026-04-20 19:14 | 12.01403 | -61.76927 | 924 ft | 212 kts | 41° |
| 2026-04-20 19:15 | 12.02664 | -61.76149 | 1844 ft | 225 kts | 6° |
| 2026-04-20 19:15 | 12.04338 | -61.76479 | 2202 ft | 256 kts | 333° |
| 2026-04-20 19:15 | 12.05331 | -61.76990 | 2626 ft | 259 kts | 318° |